BBRO2: Mountain Fork, Broken Bow Rereg

                                SHEF ID:       BBRO2     Mountain Fork Re-regulation Dam
STATION TYPE:

STAGE RIV-FLOW VOLTAGE BAT-LOAD
ft cfs volt volt
Ccp-Rev Ccp-Rev Ccp-Rev Ccp-Rev
(America/Chicago)
09/01 00:00 391.46 1086 13.16 12.60
09/01 01:00 391.06 945 13.16 12.60
09/01 02:00 390.77 814 13.16 12.61
09/01 03:00 390.51 704 13.12 12.62
09/01 04:00 390.23 603 13.15 12.62
09/01 05:00 390.05 545 13.16 12.62
09/01 06:00 389.83 471 13.17 12.63
09/01 07:00 389.63 409 13.16 12.63
09/01 08:00 389.53 381 13.16 12.63
09/01 09:00 389.40 348 13.17 12.63
09/01 10:00 389.27 318 13.17 12.60
09/01 11:00 389.16 294 13.17 12.58
09/01 12:00 389.03 269 13.17 12.57
09/01 13:00 388.96 256 13.17 12.55
09/01 14:00 388.85 237 13.17 12.54
09/01 15:00 388.73 218 13.17 12.54
09/01 16:00 388.69 212 13.15 12.55
09/01 17:00 389.08 278 13.17 12.56
09/01 18:00 391.94 1283 13.17 12.56
09/01 19:00 394.15 2384 13.16 12.57
09/01 20:00 395.29 3001 13.16 12.57
09/01 21:00 395.15 2927 13.15 12.57
09/01 22:00 394.44 2534 13.16 12.57
09/01 23:00 393.77 2163 13.15 12.58
Data processed at Wed 02Sep2026 04:34 GMT

NOTICE: If you are parsing this page

Please convert to using our Data API. Starting early 2026 we will be migrating to: https://water.usace.army.mil with modern pages rendered in JavaScript. When this migration completes you will no longer be able to scrape this page! CWMSDataAPI (CDA)

Timeseries IDs (TSIDs)

TSIDs used from left to right in the data table
BROM.Stage.Inst.1Hour.0.Ccp-Rev
BROM.Flow.Inst.1Hour.0.Ccp-Rev
BROM.Volt-Battery.Inst.1Hour.0.Ccp-Rev
BROM.Volt-Battery Load.Inst.1Hour.0.Ccp-Rev

                            

All information presented herein is the property of the government of the United States of America and may be revised or deleted at any time without prior notice. Dissemination of this information without the expressed written consent of the Public Affairs Office, Tulsa District U.S. Army Corps of Engineers is strictly prohibited. These data are gathered electronically and, as presented, have NOT undergone any form of quality control. These data are NOT guaranteed to be valid or correct.